Cobbs Creek, Virginia
Current Conditions -  °F | °C
As of 5:55 PM on Monday 22 Dec 2014 (Local Time) from KW75 Reporting Station
Overcast Overcast  
Wind Chill: 35°   Ceiling: 500
Heat Index: 41°   Visibility: 3mi
Dew Point: 40°   Wind: 8mph
Humidity: 96%   Direction: 350°N
Pressure: 30.08"   Gusts: NA
Location:  37.51°N, 76.4°W
Report Text: KW75 222255Z AUTO 35007KT 3SM OVC005 05/04 A3008 RMK AO1 T00480042
Loading
Personal Weather Stations






























Interactive Weather Map New forecast layout! Learn more

10-Day Weather Forecast

Advertisements
Track Severe Weather on mobile